sensor_id;sensor_type;location;lat;lon;timestamp;pressure;altitude;pressure_sealevel;temperature;humidity
75538;BME280;64121;48.666;8.114;2023-06-22T00:01:38;99979.03;;;21.71;86.99
75538;BME280;64121;48.666;8.114;2023-06-22T00:04:04;100033.66;;;21.72;88.09
75538;BME280;64121;48.666;8.114;2023-06-22T00:06:30;100078.00;;;21.86;87.63
75538;BME280;64121;48.666;8.114;2023-06-22T00:08:56;100088.53;;;21.85;86.62
75538;BME280;64121;48.666;8.114;2023-06-22T00:11:21;100039.13;;;21.86;85.51
75538;BME280;64121;48.666;8.114;2023-06-22T00:13:46;99980.44;;;21.87;85.17
75538;BME280;64121;48.666;8.114;2023-06-22T00:16:12;99957.41;;;21.85;84.56
75538;BME280;64121;48.666;8.114;2023-06-22T00:18:37;99957.34;;;21.88;84.47
75538;BME280;64121;48.666;8.114;2023-06-22T00:21:03;99974.41;;;21.85;84.66
75538;BME280;64121;48.666;8.114;2023-06-22T00:23:29;99972.09;;;21.76;85.60
75538;BME280;64121;48.666;8.114;2023-06-22T00:25:55;99956.72;;;21.77;84.78
75538;BME280;64121;48.666;8.114;2023-06-22T00:28:20;99940.56;;;21.74;84.45
75538;BME280;64121;48.666;8.114;2023-06-22T00:30:45;99943.59;;;21.60;85.02
75538;BME280;64121;48.666;8.114;2023-06-22T00:33:11;99946.81;;;21.62;85.00
75538;BME280;64121;48.666;8.114;2023-06-22T00:35:36;99939.81;;;21.70;84.19
75538;BME280;64121;48.666;8.114;2023-06-22T00:38:01;99934.25;;;21.63;84.70
75538;BME280;64121;48.666;8.114;2023-06-22T00:40:28;99924.59;;;21.57;85.20
75538;BME280;64121;48.666;8.114;2023-06-22T00:42:54;99918.28;;;21.45;85.41
75538;BME280;64121;48.666;8.114;2023-06-22T00:45:20;99921.88;;;21.50;85.60
75538;BME280;64121;48.666;8.114;2023-06-22T00:47:45;99923.97;;;21.45;85.02
75538;BME280;64121;48.666;8.114;2023-06-22T00:50:18;99918.94;;;21.26;86.44
75538;BME280;64121;48.666;8.114;2023-06-22T00:52:44;99921.81;;;21.23;86.90
75538;BME280;64121;48.666;8.114;2023-06-22T00:55:09;99904.78;;;21.26;86.80
75538;BME280;64121;48.666;8.114;2023-06-22T00:57:36;99905.59;;;21.27;86.59
75538;BME280;64121;48.666;8.114;2023-06-22T01:00:02;99893.94;;;21.21;87.38
75538;BME280;64121;48.666;8.114;2023-06-22T01:02:27;99904.13;;;21.11;88.39
75538;BME280;64121;48.666;8.114;2023-06-22T01:04:52;99894.03;;;21.10;88.73
75538;BME280;64121;48.666;8.114;2023-06-22T01:07:21;99887.47;;;21.17;88.36
75538;BME280;64121;48.666;8.114;2023-06-22T01:09:54;99896.44;;;21.12;88.39
75538;BME280;64121;48.666;8.114;2023-06-22T01:12:22;99913.31;;;21.19;88.26
75538;BME280;64121;48.666;8.114;2023-06-22T01:14:53;99926.28;;;21.16;87.90
75538;BME280;64121;48.666;8.114;2023-06-22T01:17:21;99934.03;;;21.12;88.70
75538;BME280;64121;48.666;8.114;2023-06-22T01:19:49;99936.22;;;20.98;89.21
75538;BME280;64121;48.666;8.114;2023-06-22T01:22:16;99925.75;;;20.95;89.81
75538;BME280;64121;48.666;8.114;2023-06-22T01:24:51;99935.16;;;20.84;89.74
75538;BME280;64121;48.666;8.114;2023-06-22T01:27:31;99931.09;;;20.85;89.51
75538;BME280;64121;48.666;8.114;2023-06-22T01:29:59;99934.78;;;20.79;90.25
75538;BME280;64121;48.666;8.114;2023-06-22T01:32:28;99940.53;;;20.72;90.73
75538;BME280;64121;48.666;8.114;2023-06-22T01:34:55;99926.28;;;20.82;89.73
75538;BME280;64121;48.666;8.114;2023-06-22T01:37:21;99929.97;;;20.76;89.88
75538;BME280;64121;48.666;8.114;2023-06-22T01:39:47;99920.88;;;20.58;91.21
75538;BME280;64121;48.666;8.114;2023-06-22T01:42:13;99918.53;;;20.49;91.34
75538;BME280;64121;48.666;8.114;2023-06-22T01:44:39;99930.91;;;20.62;90.73
75538;BME280;64121;48.666;8.114;2023-06-22T01:47:07;99925.72;;;20.57;90.85
75538;BME280;64121;48.666;8.114;2023-06-22T01:49:32;99931.50;;;20.46;91.76
75538;BME280;64121;48.666;8.114;2023-06-22T01:51:58;99923.03;;;20.39;91.96
75538;BME280;64121;48.666;8.114;2023-06-22T01:54:23;99922.00;;;20.15;94.02
75538;BME280;64121;48.666;8.114;2023-06-22T01:56:49;99918.91;;;19.99;95.54
75538;BME280;64121;48.666;8.114;2023-06-22T01:59:18;99918.06;;;20.02;94.81
75538;BME280;64121;48.666;8.114;2023-06-22T02:01:50;99927.72;;;20.05;94.47
75538;BME280;64121;48.666;8.114;2023-06-22T02:04:24;99921.69;;;20.03;94.27
75538;BME280;64121;48.666;8.114;2023-06-22T02:06:52;99909.16;;;20.07;94.54
75538;BME280;64121;48.666;8.114;2023-06-22T02:09:21;99912.84;;;20.01;94.04
75538;BME280;64121;48.666;8.114;2023-06-22T02:11:50;99914.50;;;19.94;95.32
75538;BME280;64121;48.666;8.114;2023-06-22T02:14:17;99911.81;;;19.77;95.39
75538;BME280;64121;48.666;8.114;2023-06-22T02:16:43;99906.16;;;19.77;95.63
75538;BME280;64121;48.666;8.114;2023-06-22T02:19:08;99893.34;;;19.51;98.09
75538;BME280;64121;48.666;8.114;2023-06-22T02:21:35;99884.09;;;19.50;98.28
75538;BME280;64121;48.666;8.114;2023-06-22T02:24:00;99880.06;;;19.58;96.85
75538;BME280;64121;48.666;8.114;2023-06-22T02:26:26;99867.56;;;19.56;97.84
75538;BME280;64121;48.666;8.114;2023-06-22T02:28:55;99878.06;;;19.48;98.82
75538;BME280;64121;48.666;8.114;2023-06-22T02:31:20;99872.41;;;19.55;97.64
75538;BME280;64121;48.666;8.114;2023-06-22T02:33:45;99874.00;;;19.60;97.32
75538;BME280;64121;48.666;8.114;2023-06-22T02:36:11;99865.50;;;19.63;97.80
75538;BME280;64121;48.666;8.114;2023-06-22T02:38:38;99866.31;;;19.60;97.06
75538;BME280;64121;48.666;8.114;2023-06-22T02:41:03;99860.31;;;19.55;97.44
75538;BME280;64121;48.666;8.114;2023-06-22T02:43:28;99864.38;;;19.43;98.48
75538;BME280;64121;48.666;8.114;2023-06-22T02:45:54;99858.78;;;19.36;99.80
75538;BME280;64121;48.666;8.114;2023-06-22T02:48:20;99844.28;;;19.34;100.00
75538;BME280;64121;48.666;8.114;2023-06-22T02:50:45;99839.44;;;19.38;99.62
75538;BME280;64121;48.666;8.114;2023-06-22T02:53:11;99840.66;;;19.37;98.77
75538;BME280;64121;48.666;8.114;2023-06-22T02:55:37;99841.88;;;19.29;97.95
75538;BME280;64121;48.666;8.114;2023-06-22T02:58:03;99843.50;;;19.30;97.69
75538;BME280;64121;48.666;8.114;2023-06-22T03:00:28;99848.31;;;19.29;97.40
75538;BME280;64121;48.666;8.114;2023-06-22T03:02:53;99838.31;;;19.21;98.10
75538;BME280;64121;48.666;8.114;2023-06-22T03:05:19;99845.59;;;19.19;98.80
75538;BME280;64121;48.666;8.114;2023-06-22T03:07:44;99849.59;;;19.14;99.43
75538;BME280;64121;48.666;8.114;2023-06-22T03:10:10;99858.47;;;19.20;98.60
75538;BME280;64121;48.666;8.114;2023-06-22T03:12:38;99854.41;;;19.24;98.52
75538;BME280;64121;48.666;8.114;2023-06-22T03:15:05;99846.31;;;19.30;98.79
75538;BME280;64121;48.666;8.114;2023-06-22T03:17:31;99854.03;;;19.19;99.31
75538;BME280;64121;48.666;8.114;2023-06-22T03:19:56;99858.97;;;19.00;100.00
75538;BME280;64121;48.666;8.114;2023-06-22T03:22:21;99858.53;;;19.02;100.00
75538;BME280;64121;48.666;8.114;2023-06-22T03:24:47;99851.66;;;19.10;99.55
75538;BME280;64121;48.666;8.114;2023-06-22T03:27:12;99842.38;;;19.10;99.53
75538;BME280;64121;48.666;8.114;2023-06-22T03:29:39;99842.41;;;19.06;99.46
75538;BME280;64121;48.666;8.114;2023-06-22T03:32:05;99850.91;;;18.99;100.00
75538;BME280;64121;48.666;8.114;2023-06-22T03:34:30;99857.75;;;18.98;100.00
75538;BME280;64121;48.666;8.114;2023-06-22T03:36:55;99852.50;;;19.00;100.00
75538;BME280;64121;48.666;8.114;2023-06-22T03:39:21;99850.09;;;18.95;100.00
75538;BME280;64121;48.666;8.114;2023-06-22T03:41:46;99837.19;;;19.01;99.80
75538;BME280;64121;48.666;8.114;2023-06-22T03:44:11;99843.22;;;19.06;99.69
75538;BME280;64121;48.666;8.114;2023-06-22T03:46:38;99835.56;;;19.07;99.01
75538;BME280;64121;48.666;8.114;2023-06-22T03:49:03;99833.19;;;18.98;100.00
75538;BME280;64121;48.666;8.114;2023-06-22T03:51:30;99825.47;;;19.10;99.25
75538;BME280;64121;48.666;8.114;2023-06-22T03:53:55;99838.38;;;19.07;99.45
75538;BME280;64121;48.666;8.114;2023-06-22T03:56:21;99834.31;;;19.15;98.91
75538;BME280;64121;48.666;8.114;2023-06-22T03:58:46;99822.72;;;18.99;100.00
75538;BME280;64121;48.666;8.114;2023-06-22T04:01:12;99821.84;;;19.09;100.00
75538;BME280;64121;48.666;8.114;2023-06-22T04:03:39;99828.66;;;19.19;98.72
75538;BME280;64121;48.666;8.114;2023-06-22T04:06:04;99827.75;;;19.32;98.22
75538;BME280;64121;48.666;8.114;2023-06-22T04:08:30;99828.22;;;19.24;98.99
75538;BME280;64121;48.666;8.114;2023-06-22T04:10:55;99830.94;;;19.42;97.49
75538;BME280;64121;48.666;8.114;2023-06-22T04:13:21;99825.63;;;19.51;96.66
75538;BME280;64121;48.666;8.114;2023-06-22T04:15:46;99826.84;;;19.57;96.75
75538;BME280;64121;48.666;8.114;2023-06-22T04:18:11;99822.41;;;19.49;97.48
75538;BME280;64121;48.666;8.114;2023-06-22T04:20:38;99822.81;;;19.58;96.93
75538;BME280;64121;48.666;8.114;2023-06-22T04:23:03;99822.44;;;19.45;97.67
75538;BME280;64121;48.666;8.114;2023-06-22T04:25:29;99808.66;;;19.61;97.04
75538;BME280;64121;48.666;8.114;2023-06-22T04:27:54;99807.03;;;19.64;96.12
75538;BME280;64121;48.666;8.114;2023-06-22T04:30:19;99797.69;;;19.71;96.67
75538;BME280;64121;48.666;8.114;2023-06-22T04:32:45;99792.44;;;19.73;96.43
75538;BME280;64121;48.666;8.114;2023-06-22T04:35:11;99791.63;;;19.76;96.04
75538;BME280;64121;48.666;8.114;2023-06-22T04:37:37;99796.84;;;19.77;96.40
75538;BME280;64121;48.666;8.114;2023-06-22T04:40:03;99801.16;;;19.92;96.36
75538;BME280;64121;48.666;8.114;2023-06-22T04:42:29;99797.03;;;20.01;94.71
75538;BME280;64121;48.666;8.114;2023-06-22T04:44:54;99791.59;;;20.20;94.23
75538;BME280;64121;48.666;8.114;2023-06-22T04:47:20;99791.94;;;20.26;93.72
75538;BME280;64121;48.666;8.114;2023-06-22T04:49:45;99796.19;;;20.48;92.79
75538;BME280;64121;48.666;8.114;2023-06-22T04:52:12;99791.59;;;20.62;92.47
75538;BME280;64121;48.666;8.114;2023-06-22T04:54:40;99793.41;;;20.79;91.31
75538;BME280;64121;48.666;8.114;2023-06-22T04:57:07;99791.06;;;21.04;91.08
75538;BME280;64121;48.666;8.114;2023-06-22T04:59:32;99793.56;;;21.29;89.21
75538;BME280;64121;48.666;8.114;2023-06-22T05:01:59;99798.19;;;21.70;87.11
75538;BME280;64121;48.666;8.114;2023-06-22T05:04:25;99791.13;;;22.28;83.56
75538;BME280;64121;48.666;8.114;2023-06-22T05:06:51;99797.28;;;22.66;82.30
75538;BME280;64121;48.666;8.114;2023-06-22T05:09:17;99794.47;;;22.86;82.03
75538;BME280;64121;48.666;8.114;2023-06-22T05:11:44;99798.09;;;23.26;78.42
75538;BME280;64121;48.666;8.114;2023-06-22T05:14:09;99800.13;;;23.62;77.88
75538;BME280;64121;48.666;8.114;2023-06-22T05:16:35;99797.66;;;23.28;79.27
75538;BME280;64121;48.666;8.114;2023-06-22T05:19:01;99782.38;;;23.91;75.92
75538;BME280;64121;48.666;8.114;2023-06-22T05:21:27;99791.63;;;23.62;76.67
75538;BME280;64121;48.666;8.114;2023-06-22T05:23:52;99792.53;;;23.55;78.10
75538;BME280;64121;48.666;8.114;2023-06-22T05:26:18;99789.38;;;23.70;76.79
75538;BME280;64121;48.666;8.114;2023-06-22T05:28:45;99791.25;;;23.76;76.25
75538;BME280;64121;48.666;8.114;2023-06-22T05:31:10;99792.31;;;23.66;76.32
75538;BME280;64121;48.666;8.114;2023-06-22T05:33:35;99792.28;;;23.50;77.82
75538;BME280;64121;48.666;8.114;2023-06-22T05:36:01;99800.34;;;23.51;77.91
75538;BME280;64121;48.666;8.114;2023-06-22T05:38:26;99796.50;;;23.25;78.89
75538;BME280;64121;48.666;8.114;2023-06-22T05:40:51;99790.31;;;23.47;78.31
75538;BME280;64121;48.666;8.114;2023-06-22T05:43:17;99796.75;;;23.67;77.46
75538;BME280;64121;48.666;8.114;2023-06-22T05:45:43;99793.41;;;23.52;78.23
75538;BME280;64121;48.666;8.114;2023-06-22T05:48:09;99806.88;;;23.68;77.81
75538;BME280;64121;48.666;8.114;2023-06-22T05:50:34;99802.56;;;23.44;78.94
75538;BME280;64121;48.666;8.114;2023-06-22T05:52:59;99809.53;;;23.75;77.39
75538;BME280;64121;48.666;8.114;2023-06-22T05:55:25;99799.00;;;23.56;77.67
75538;BME280;64121;48.666;8.114;2023-06-22T05:57:50;99804.63;;;22.87;80.66
75538;BME280;64121;48.666;8.114;2023-06-22T06:00:16;99806.63;;;22.87;81.08
75538;BME280;64121;48.666;8.114;2023-06-22T06:02:43;99801.34;;;22.89;81.45
75538;BME280;64121;48.666;8.114;2023-06-22T06:05:09;99800.50;;;23.28;80.17
75538;BME280;64121;48.666;8.114;2023-06-22T06:07:34;99803.84;;;23.75;78.04
75538;BME280;64121;48.666;8.114;2023-06-22T06:09:59;99807.69;;;23.69;78.42
75538;BME280;64121;48.666;8.114;2023-06-22T06:12:25;99801.91;;;23.72;77.69
75538;BME280;64121;48.666;8.114;2023-06-22T06:14:50;99799.41;;;23.91;77.18
75538;BME280;64121;48.666;8.114;2023-06-22T06:17:15;99798.72;;;23.70;77.60
75538;BME280;64121;48.666;8.114;2023-06-22T06:19:42;99801.91;;;23.72;77.29
75538;BME280;64121;48.666;8.114;2023-06-22T06:22:07;99809.91;;;23.94;78.25
75538;BME280;64121;48.666;8.114;2023-06-22T06:24:32;99804.84;;;24.01;76.43
75538;BME280;64121;48.666;8.114;2023-06-22T06:26:58;99795.47;;;24.17;75.80
75538;BME280;64121;48.666;8.114;2023-06-22T06:29:23;99793.63;;;23.94;76.37
75538;BME280;64121;48.666;8.114;2023-06-22T06:31:49;99786.16;;;24.16;75.86
75538;BME280;64121;48.666;8.114;2023-06-22T06:34:14;99791.13;;;24.12;76.27
75538;BME280;64121;48.666;8.114;2023-06-22T06:36:41;99782.97;;;24.31;75.38
75538;BME280;64121;48.666;8.114;2023-06-22T06:39:06;99785.28;;;24.36;74.97
75538;BME280;64121;48.666;8.114;2023-06-22T06:41:31;99788.28;;;24.45;74.69
75538;BME280;64121;48.666;8.114;2023-06-22T06:43:57;99788.81;;;24.69;73.74
75538;BME280;64121;48.666;8.114;2023-06-22T06:46:22;99788.81;;;24.69;72.92
75538;BME280;64121;48.666;8.114;2023-06-22T06:48:47;99799.56;;;24.90;72.54
75538;BME280;64121;48.666;8.114;2023-06-22T06:51:13;99812.38;;;24.98;72.56
75538;BME280;64121;48.666;8.114;2023-06-22T06:53:39;99817.09;;;25.18;72.32
75538;BME280;64121;48.666;8.114;2023-06-22T06:56:05;99811.84;;;25.03;72.85
75538;BME280;64121;48.666;8.114;2023-06-22T06:58:30;99808.34;;;25.38;71.04
75538;BME280;64121;48.666;8.114;2023-06-22T07:00:56;99809.38;;;25.31;71.65
75538;BME280;64121;48.666;8.114;2023-06-22T07:03:21;99813.94;;;25.41;71.05
75538;BME280;64121;48.666;8.114;2023-06-22T07:05:47;99810.88;;;25.35;70.62
75538;BME280;64121;48.666;8.114;2023-06-22T07:08:12;99808.84;;;25.49;71.11
75538;BME280;64121;48.666;8.114;2023-06-22T07:10:39;99796.50;;;25.26;70.84
75538;BME280;64121;48.666;8.114;2023-06-22T07:13:04;99801.31;;;25.29;72.33
75538;BME280;64121;48.666;8.114;2023-06-22T07:15:29;99798.81;;;25.70;71.24
75538;BME280;64121;48.666;8.114;2023-06-22T07:17:55;99799.13;;;25.84;70.24
75538;BME280;64121;48.666;8.114;2023-06-22T07:20:20;99804.00;;;26.22;69.00
75538;BME280;64121;48.666;8.114;2023-06-22T07:22:45;99808.38;;;25.88;68.90
75538;BME280;64121;48.666;8.114;2023-06-22T07:25:11;99805.50;;;26.01;68.67
75538;BME280;64121;48.666;8.114;2023-06-22T07:27:38;99804.09;;;26.18;68.68
75538;BME280;64121;48.666;8.114;2023-06-22T07:30:05;99802.81;;;26.32;68.92
75538;BME280;64121;48.666;8.114;2023-06-22T07:32:31;99807.78;;;26.53;67.62
75538;BME280;64121;48.666;8.114;2023-06-22T07:34:56;99817.19;;;26.29;67.13
75538;BME280;64121;48.666;8.114;2023-06-22T07:37:22;99827.03;;;26.27;68.19
75538;BME280;64121;48.666;8.114;2023-06-22T07:39:47;99822.38;;;26.08;68.58
75538;BME280;64121;48.666;8.114;2023-06-22T07:42:13;99820.81;;;25.94;69.49
75538;BME280;64121;48.666;8.114;2023-06-22T07:44:40;99844.53;;;26.04;69.88
75538;BME280;64121;48.666;8.114;2023-06-22T07:47:05;99852.84;;;25.99;69.46
75538;BME280;64121;48.666;8.114;2023-06-22T07:49:31;99875.69;;;25.86;70.65
75538;BME280;64121;48.666;8.114;2023-06-22T07:51:56;99896.94;;;25.56;72.05
75538;BME280;64121;48.666;8.114;2023-06-22T07:54:21;99908.75;;;25.29;72.49
75538;BME280;64121;48.666;8.114;2023-06-22T07:56:47;99904.94;;;25.19;73.47
75538;BME280;64121;48.666;8.114;2023-06-22T07:59:12;99912.28;;;25.04;74.43
75538;BME280;64121;48.666;8.114;2023-06-22T08:01:39;99912.16;;;24.62;75.74
75538;BME280;64121;48.666;8.114;2023-06-22T08:04:04;99883.19;;;24.35;76.86
75538;BME280;64121;48.666;8.114;2023-06-22T08:06:30;99857.69;;;24.31;77.74
75538;BME280;64121;48.666;8.114;2023-06-22T08:08:55;99821.66;;;24.86;74.50
75538;BME280;64121;48.666;8.114;2023-06-22T08:11:21;99789.16;;;25.00;72.88
75538;BME280;64121;48.666;8.114;2023-06-22T08:13:46;99777.44;;;24.69;75.04
75538;BME280;64121;48.666;8.114;2023-06-22T08:16:11;99792.16;;;25.22;73.52
75538;BME280;64121;48.666;8.114;2023-06-22T08:18:38;99827.84;;;25.39;72.77
75538;BME280;64121;48.666;8.114;2023-06-22T08:21:03;99813.38;;;24.92;75.27
75538;BME280;64121;48.666;8.114;2023-06-22T08:23:29;99812.75;;;25.00;74.67
75538;BME280;64121;48.666;8.114;2023-06-22T08:25:54;99824.97;;;25.26;74.70
75538;BME280;64121;48.666;8.114;2023-06-22T08:28:19;99834.31;;;26.29;71.36
75538;BME280;64121;48.666;8.114;2023-06-22T08:30:45;99862.97;;;26.72;69.13
75538;BME280;64121;48.666;8.114;2023-06-22T08:33:10;99849.94;;;27.06;67.37
75538;BME280;64121;48.666;8.114;2023-06-22T08:35:37;99843.16;;;27.65;64.38
75538;BME280;64121;48.666;8.114;2023-06-22T08:38:02;99859.03;;;28.06;63.48
75538;BME280;64121;48.666;8.114;2023-06-22T08:40:28;99842.25;;;28.18;62.13
75538;BME280;64121;48.666;8.114;2023-06-22T08:42:53;99862.09;;;28.12;61.76
75538;BME280;64121;48.666;8.114;2023-06-22T08:45:18;99841.34;;;28.39;61.63
75538;BME280;64121;48.666;8.114;2023-06-22T08:47:44;99855.81;;;28.26;60.93
75538;BME280;64121;48.666;8.114;2023-06-22T08:50:10;99842.19;;;28.49;60.55
75538;BME280;64121;48.666;8.114;2023-06-22T08:52:38;99848.22;;;27.92;62.74
75538;BME280;64121;48.666;8.114;2023-06-22T08:55:05;99838.53;;;28.48;62.84
75538;BME280;64121;48.666;8.114;2023-06-22T08:57:31;99844.28;;;29.03;59.13
75538;BME280;64121;48.666;8.114;2023-06-22T08:59:56;99843.00;;;28.95;58.56
75538;BME280;64121;48.666;8.114;2023-06-22T09:02:21;99848.06;;;27.96;62.72
75538;BME280;64121;48.666;8.114;2023-06-22T09:04:47;99838.81;;;28.41;60.00
75538;BME280;64121;48.666;8.114;2023-06-22T09:07:12;99832.44;;;27.79;63.91
75538;BME280;64121;48.666;8.114;2023-06-22T09:09:39;99820.94;;;27.69;63.33
75538;BME280;64121;48.666;8.114;2023-06-22T09:12:05;99794.63;;;27.84;64.73
75538;BME280;64121;48.666;8.114;2023-06-22T09:14:30;99781.31;;;27.90;62.74
75538;BME280;64121;48.666;8.114;2023-06-22T09:16:56;99765.47;;;27.27;64.81
75538;BME280;64121;48.666;8.114;2023-06-22T09:19:21;99752.84;;;27.06;65.50
75538;BME280;64121;48.666;8.114;2023-06-22T09:21:46;99756.28;;;27.32;66.45
75538;BME280;64121;48.666;8.114;2023-06-22T09:24:12;99755.16;;;27.29;65.04
75538;BME280;64121;48.666;8.114;2023-06-22T09:26:39;99745.00;;;27.68;63.55
75538;BME280;64121;48.666;8.114;2023-06-22T09:29:04;99743.25;;;27.31;64.78
75538;BME280;64121;48.666;8.114;2023-06-22T09:31:30;99725.94;;;26.50;66.45
75538;BME280;64121;48.666;8.114;2023-06-22T09:33:55;99727.06;;;26.53;66.94
75538;BME280;64121;48.666;8.114;2023-06-22T09:36:20;99720.34;;;26.91;66.34
75538;BME280;64121;48.666;8.114;2023-06-22T09:38:46;99734.13;;;27.14;66.73
75538;BME280;64121;48.666;8.114;2023-06-22T09:41:11;99748.25;;;27.08;65.35
75538;BME280;64121;48.666;8.114;2023-06-22T09:43:38;99742.94;;;27.29;65.34
75538;BME280;64121;48.666;8.114;2023-06-22T09:46:03;99747.63;;;27.13;66.68
75538;BME280;64121;48.666;8.114;2023-06-22T09:48:29;99751.63;;;27.56;63.93
75538;BME280;64121;48.666;8.114;2023-06-22T09:50:54;99747.81;;;28.18;62.13
75538;BME280;64121;48.666;8.114;2023-06-22T09:53:19;99740.06;;;28.55;61.62
75538;BME280;64121;48.666;8.114;2023-06-22T09:55:45;99747.91;;;29.15;59.89
75538;BME280;64121;48.666;8.114;2023-06-22T09:58:10;99744.78;;;28.94;59.52
75538;BME280;64121;48.666;8.114;2023-06-22T10:00:37;99740.06;;;29.34;59.48
75538;BME280;64121;48.666;8.114;2023-06-22T10:03:02;99728.41;;;29.46;58.44
75538;BME280;64121;48.666;8.114;2023-06-22T10:05:27;99724.88;;;29.51;57.74
75538;BME280;64121;48.666;8.114;2023-06-22T10:07:53;99725.47;;;29.13;58.06
75538;BME280;64121;48.666;8.114;2023-06-22T10:10:18;99714.16;;;29.19;57.43
75538;BME280;64121;48.666;8.114;2023-06-22T10:12:45;99713.75;;;29.02;59.17
75538;BME280;64121;48.666;8.114;2023-06-22T10:15:11;99712.47;;;29.03;61.75
75538;BME280;64121;48.666;8.114;2023-06-22T10:17:38;99705.91;;;29.54;58.47
75538;BME280;64121;48.666;8.114;2023-06-22T10:20:05;99712.97;;;29.77;56.78
75538;BME280;64121;48.666;8.114;2023-06-22T10:22:30;99702.31;;;29.92;55.69
75538;BME280;64121;48.666;8.114;2023-06-22T10:24:55;99697.22;;;29.39;57.33
75538;BME280;64121;48.666;8.114;2023-06-22T10:27:21;99705.56;;;29.61;56.01
75538;BME280;64121;48.666;8.114;2023-06-22T10:29:46;99700.91;;;29.88;57.16
75538;BME280;64121;48.666;8.114;2023-06-22T10:32:11;99710.31;;;30.36;55.00
75538;BME280;64121;48.666;8.114;2023-06-22T10:34:38;99704.25;;;30.34;56.48
75538;BME280;64121;48.666;8.114;2023-06-22T10:37:04;99708.69;;;30.73;53.29
75538;BME280;64121;48.666;8.114;2023-06-22T10:39:29;99702.53;;;30.81;52.41
75538;BME280;64121;48.666;8.114;2023-06-22T10:41:55;99705.44;;;30.95;52.55
75538;BME280;64121;48.666;8.114;2023-06-22T10:44:20;99706.50;;;30.83;52.35
75538;BME280;64121;48.666;8.114;2023-06-22T10:46:45;99705.03;;;31.17;51.55
75538;BME280;64121;48.666;8.114;2023-06-22T10:49:11;99705.22;;;30.84;53.61
75538;BME280;64121;48.666;8.114;2023-06-22T10:51:37;99703.81;;;30.50;54.18
75538;BME280;64121;48.666;8.114;2023-06-22T10:54:03;99699.75;;;30.57;53.90
75538;BME280;64121;48.666;8.114;2023-06-22T10:56:28;99699.28;;;30.20;54.24
75538;BME280;64121;48.666;8.114;2023-06-22T10:58:53;99688.31;;;30.33;55.26
75538;BME280;64121;48.666;8.114;2023-06-22T11:01:20;99692.06;;;30.24;53.96
75538;BME280;64121;48.666;8.114;2023-06-22T11:03:45;99684.78;;;29.90;57.39
75538;BME280;64121;48.666;8.114;2023-06-22T11:06:10;99683.81;;;29.69;55.45
75538;BME280;64121;48.666;8.114;2023-06-22T11:08:37;99672.84;;;30.30;55.66
75538;BME280;64121;48.666;8.114;2023-06-22T11:11:02;99672.50;;;30.37;56.09
75538;BME280;64121;48.666;8.114;2023-06-22T11:13:28;99670.13;;;30.51;54.19
75538;BME280;64121;48.666;8.114;2023-06-22T11:15:53;99681.75;;;29.94;56.02
75538;BME280;64121;48.666;8.114;2023-06-22T11:18:18;99683.94;;;29.99;55.85
75538;BME280;64121;48.666;8.114;2023-06-22T11:20:44;99689.06;;;29.38;57.51
75538;BME280;64121;48.666;8.114;2023-06-22T11:23:09;99700.69;;;29.76;58.81
75538;BME280;64121;48.666;8.114;2023-06-22T11:25:36;99705.41;;;29.22;58.65
75538;BME280;64121;48.666;8.114;2023-06-22T11:28:02;99718.72;;;29.68;58.00
75538;BME280;64121;48.666;8.114;2023-06-22T11:30:27;99726.00;;;30.02;56.32
75538;BME280;64121;48.666;8.114;2023-06-22T11:32:52;99735.94;;;30.39;56.14
75538;BME280;64121;48.666;8.114;2023-06-22T11:35:18;99739.59;;;30.79;54.31
75538;BME280;64121;48.666;8.114;2023-06-22T11:37:43;99739.22;;;31.15;53.99
75538;BME280;64121;48.666;8.114;2023-06-22T11:40:10;99752.00;;;30.99;54.35
75538;BME280;64121;48.666;8.114;2023-06-22T11:42:36;99751.19;;;30.84;53.88
75538;BME280;64121;48.666;8.114;2023-06-22T11:45:04;99758.31;;;30.74;54.79
75538;BME280;64121;48.666;8.114;2023-06-22T11:47:30;99757.94;;;30.42;55.09
75538;BME280;64121;48.666;8.114;2023-06-22T11:49:55;99761.34;;;29.84;56.02
75538;BME280;64121;48.666;8.114;2023-06-22T11:52:21;99763.94;;;30.06;55.35
75538;BME280;64121;48.666;8.114;2023-06-22T11:54:46;99754.69;;;30.02;55.90
75538;BME280;64121;48.666;8.114;2023-06-22T11:57:12;99736.88;;;30.22;57.01
75538;BME280;64121;48.666;8.114;2023-06-22T11:59:38;99732.09;;;30.42;55.93
75538;BME280;64121;48.666;8.114;2023-06-22T12:02:04;99735.53;;;29.84;55.93
75538;BME280;64121;48.666;8.114;2023-06-22T12:04:29;99742.75;;;29.79;56.80
75538;BME280;64121;48.666;8.114;2023-06-22T12:06:54;99749.06;;;29.08;60.25
75538;BME280;64121;48.666;8.114;2023-06-22T12:09:20;99751.59;;;29.15;59.31
75538;BME280;64121;48.666;8.114;2023-06-22T12:11:45;99749.81;;;29.18;58.98
75538;BME280;64121;48.666;8.114;2023-06-22T12:14:10;99752.16;;;28.68;62.56
75538;BME280;64121;48.666;8.114;2023-06-22T12:16:37;99757.53;;;29.03;59.93
75538;BME280;64121;48.666;8.114;2023-06-22T12:19:02;99753.09;;;28.92;60.66
75538;BME280;64121;48.666;8.114;2023-06-22T12:21:28;99749.88;;;29.09;60.49
75538;BME280;64121;48.666;8.114;2023-06-22T12:23:53;99741.41;;;29.14;59.75
75538;BME280;64121;48.666;8.114;2023-06-22T12:26:18;99739.88;;;29.46;61.25
75538;BME280;64121;48.666;8.114;2023-06-22T12:28:44;99733.94;;;29.83;58.82
75538;BME280;64121;48.666;8.114;2023-06-22T12:31:09;99741.53;;;29.95;58.57
75538;BME280;64121;48.666;8.114;2023-06-22T12:33:36;99727.97;;;30.20;57.66
75538;BME280;64121;48.666;8.114;2023-06-22T12:36:01;99726.94;;;30.70;56.98
75538;BME280;64121;48.666;8.114;2023-06-22T12:38:26;99712.53;;;31.15;53.27
75538;BME280;64121;48.666;8.114;2023-06-22T12:40:52;99723.25;;;31.79;52.95
75538;BME280;64121;48.666;8.114;2023-06-22T12:43:17;99721.81;;;30.51;56.30
75538;BME280;64121;48.666;8.114;2023-06-22T12:45:43;99708.00;;;30.93;53.41
75538;BME280;64121;48.666;8.114;2023-06-22T12:48:08;99711.75;;;31.29;53.08
75538;BME280;64121;48.666;8.114;2023-06-22T12:50:35;99714.13;;;31.16;53.42
75538;BME280;64121;48.666;8.114;2023-06-22T12:53:00;99725.34;;;31.28;54.02